createdAt,value
2022-10-17T00:01:35.329Z,99531.66
2022-10-17T00:04:04.650Z,99517.19
2022-10-17T00:06:32.477Z,99501.91
2022-10-17T00:09:00.320Z,99476.28
2022-10-17T00:11:28.207Z,99471.34
2022-10-17T00:13:57.251Z,99449.97
2022-10-17T00:16:27.625Z,99438.94
2022-10-17T00:18:56.241Z,99426.94
2022-10-17T00:21:26.570Z,99417.69
2022-10-17T00:23:55.194Z,99410.81
2022-10-17T00:26:23.660Z,99404.88
2022-10-17T00:28:53.321Z,99396.38
2022-10-17T00:31:23.139Z,99382.75
2022-10-17T00:33:51.476Z,99371.69
2022-10-17T00:36:21.810Z,99357.25
2022-10-17T00:38:53.358Z,99348.72
2022-10-17T00:41:23.504Z,99330.91
2022-10-17T00:43:58.086Z,99319.88
2022-10-17T00:46:28.053Z,99307.13
2022-10-17T00:48:58.264Z,99291.75
2022-10-17T00:51:32.286Z,99280.75
2022-10-17T00:54:03.842Z,99267.16
2022-10-17T00:56:32.914Z,99263.81
2022-10-17T00:59:01.010Z,99253.56
2022-10-17T01:01:28.955Z,99235.56
2022-10-17T01:03:59.677Z,99238.22
2022-10-17T01:06:27.687Z,99253.66
2022-10-17T01:08:55.846Z,99243.31
2022-10-17T01:11:34.677Z,99248.41
2022-10-17T01:14:10.345Z,99240.72
2022-10-17T01:16:49.018Z,99246.81
2022-10-17T01:19:36.843Z,99234.88
2022-10-17T01:22:10.821Z,99222.22
2022-10-17T01:25:08.727Z,99201.78
2022-10-17T01:27:50.405Z,99186.47
2022-10-17T01:30:37.884Z,99181.44
2022-10-17T01:33:14.591Z,99162.72
2022-10-17T01:35:48.091Z,99161.09
2022-10-17T01:38:22.896Z,99142.38
2022-10-17T01:40:57.345Z,99131.34
2022-10-17T01:43:31.263Z,99119.34
2022-10-17T01:46:02.808Z,99119.44
2022-10-17T01:49:01.401Z,99115.19
2022-10-17T01:51:34.642Z,99119.44
2022-10-17T01:54:08.041Z,99123.69
2022-10-17T01:56:37.580Z,99118.53
2022-10-17T01:59:11.953Z,99114.38
2022-10-17T02:01:42.515Z,99104.19
2022-10-17T02:04:12.873Z,99099.09
2022-10-17T02:06:40.913Z,99099.09
2022-10-17T02:09:19.873Z,99105.13
2022-10-17T02:12:05.015Z,99100.78
2022-10-17T02:14:45.377Z,99108.44
2022-10-17T02:17:22.352Z,99124.72
2022-10-17T02:20:00.022Z,99124.63
2022-10-17T02:22:38.916Z,99139.94
2022-10-17T02:25:15.634Z,99143.34
2022-10-17T02:27:49.855Z,99146.72
2022-10-17T02:30:30.389Z,99150.22
2022-10-17T02:33:02.375Z,99140.78
2022-10-17T02:35:35.471Z,99141.78
2022-10-17T02:38:09.427Z,99128.97
2022-10-17T02:40:38.843Z,99117.94
2022-10-17T02:43:06.674Z,99111.13
2022-10-17T02:45:39.199Z,99106.84
2022-10-17T02:48:12.100Z,99104.34
2022-10-17T02:50:53.358Z,99099.28
2022-10-17T02:53:29.164Z,99093.34
2022-10-17T02:56:01.220Z,99086.50
2022-10-17T02:58:36.337Z,99088.25
2022-10-17T03:01:06.122Z,99120.53
2022-10-17T03:03:34.314Z,99120.63
2022-10-17T03:06:04.672Z,99116.34
2022-10-17T03:08:32.625Z,99103.59
2022-10-17T03:11:01.408Z,99089.09
2022-10-17T03:13:31.752Z,99080.59
2022-10-17T03:16:01.368Z,99062.75
2022-10-17T03:18:29.247Z,99068.03
2022-10-17T03:21:00.991Z,99045.78
2022-10-17T03:23:30.737Z,99034.72
2022-10-17T03:25:58.931Z,99033.03
2022-10-17T03:28:28.026Z,99031.38
2022-10-17T03:30:55.987Z,99035.69
2022-10-17T03:33:23.906Z,99033.94
2022-10-17T03:35:51.905Z,99033.13
2022-10-17T03:38:19.802Z,99028.03
2022-10-17T03:40:56.418Z,99017.81
2022-10-17T03:43:24.408Z,99022.13
2022-10-17T03:45:52.160Z,99008.56
2022-10-17T03:48:22.287Z,99000.06
2022-10-17T03:50:50.541Z,98993.25
2022-10-17T03:53:18.566Z,98989.94
2022-10-17T03:55:46.567Z,98978.81
2022-10-17T03:58:15.771Z,98968.59
2022-10-17T04:00:45.424Z,98966.94
2022-10-17T04:03:17.113Z,98963.63
2022-10-17T04:05:45.364Z,98958.50
2022-10-17T04:08:13.243Z,98951.69
2022-10-17T04:11:24.064Z,98944.97
2022-10-17T04:13:56.360Z,98944.13
2022-10-17T04:16:27.467Z,98938.22
2022-10-17T04:19:05.071Z,98937.41
2022-10-17T04:21:41.207Z,98922.91
2022-10-17T04:24:12.119Z,98916.16
2022-10-17T04:26:51.910Z,98905.09
2022-10-17T04:29:22.804Z,98901.69
2022-10-17T04:31:53.001Z,98894.84
2022-10-17T04:34:26.385Z,98898.34
2022-10-17T04:37:19.785Z,98899.19
2022-10-17T04:39:50.023Z,98912.03
2022-10-17T04:42:18.001Z,98927.22
2022-10-17T04:44:48.212Z,98952.72
2022-10-17T04:47:18.702Z,98980.66
2022-10-17T04:49:47.546Z,99006.16
2022-10-17T04:52:17.094Z,99042.63
2022-10-17T04:54:47.138Z,99086.00
2022-10-17T04:57:15.402Z,99097.94
2022-10-17T04:59:58.647Z,99112.44
2022-10-17T05:02:49.046Z,99121.75
2022-10-17T05:05:18.597Z,99126.09
2022-10-17T05:07:49.370Z,99127.78
2022-10-17T05:10:24.115Z,99131.09
2022-10-17T05:12:54.349Z,99140.50
2022-10-17T05:15:26.541Z,99145.59
2022-10-17T05:17:56.933Z,99146.44
2022-10-17T05:20:26.421Z,99145.59
2022-10-17T05:22:55.197Z,99139.69
2022-10-17T05:25:24.308Z,99134.50
2022-10-17T05:27:54.923Z,99133.78
2022-10-17T05:30:23.232Z,99123.59
2022-10-17T05:32:56.978Z,99115.94
2022-10-17T05:35:24.957Z,99114.28
2022-10-17T05:37:53.806Z,99118.50
2022-10-17T05:40:23.574Z,99118.50
2022-10-17T05:42:53.999Z,99121.09
2022-10-17T05:45:24.716Z,99135.59
2022-10-17T05:47:52.996Z,99141.44
2022-10-17T05:50:24.314Z,99150.84
2022-10-17T05:53:09.603Z,99162.78
2022-10-17T05:55:42.393Z,99184.13
2022-10-17T05:58:17.667Z,99178.88
2022-10-17T06:00:59.895Z,99182.28
2022-10-17T06:03:28.864Z,99197.63
2022-10-17T06:06:03.818Z,99207.06
2022-10-17T06:08:31.748Z,99226.63
2022-10-17T06:11:01.700Z,99249.56
2022-10-17T06:13:32.075Z,99275.84
2022-10-17T06:16:03.901Z,99320.19
2022-10-17T06:18:31.910Z,99373.00
2022-10-17T06:21:05.480Z,99410.38
2022-10-17T06:23:34.569Z,99441.00
2022-10-17T06:26:10.866Z,99460.63
2022-10-17T06:28:39.182Z,99463.97
2022-10-17T06:31:08.329Z,99493.94
2022-10-17T06:33:37.445Z,99509.22
2022-10-17T06:36:09.595Z,99522.00
2022-10-17T06:38:37.674Z,99536.53
2022-10-17T06:41:13.785Z,99544.06
2022-10-17T06:43:45.610Z,99570.59
2022-10-17T06:46:45.727Z,99600.41
2022-10-17T06:49:16.945Z,99644.75
2022-10-17T06:52:12.879Z,99687.41
2022-10-17T06:54:52.992Z,99730.94
2022-10-17T06:57:35.402Z,99759.88
2022-10-17T07:00:23.311Z,99807.66
2022-10-17T07:02:55.016Z,99846.88
2022-10-17T07:05:22.923Z,99888.69
2022-10-17T07:07:52.194Z,99936.66
2022-10-17T07:10:20.308Z,99969.88
2022-10-17T07:12:48.181Z,100014.31
2022-10-17T07:15:16.301Z,100047.50
2022-10-17T07:17:44.177Z,100092.91
2022-10-17T07:20:12.603Z,100135.69
2022-10-17T07:22:40.516Z,100175.81
2022-10-17T07:25:16.812Z,100227.19
2022-10-17T07:27:54.025Z,100264.75
2022-10-17T08:09:30.572Z,101234.09
2022-10-17T08:12:00.332Z,101260.03
2022-10-17T08:14:28.252Z,101270.25
2022-10-17T08:16:56.280Z,101290.09
2022-10-17T08:19:24.382Z,101305.50
2022-10-17T08:21:52.611Z,101324.50
2022-10-17T08:24:20.487Z,101347.75
2022-10-17T08:26:49.605Z,101361.50
2022-10-17T08:29:21.384Z,101386.47
2022-10-17T08:31:52.373Z,101416.56
2022-10-17T08:34:24.389Z,101454.44
2022-10-17T08:36:52.159Z,101495.78
2022-10-17T08:39:20.190Z,101531.97
2022-10-17T08:41:59.943Z,101568.19
2022-10-17T08:44:40.943Z,101590.50
2022-10-17T08:47:15.494Z,101613.72
2022-10-17T08:49:51.334Z,101637.03
2022-10-17T08:52:26.482Z,101651.72
2022-10-17T08:54:54.558Z,101664.66
2022-10-17T08:57:22.554Z,101681.03
2022-10-17T08:59:54.617Z,101693.91
2022-10-17T09:02:35.567Z,101714.56
2022-10-17T09:05:31.478Z,101729.25
2022-10-17T09:08:10.201Z,101754.31
2022-10-17T09:10:49.978Z,101768.16
2022-10-17T09:13:38.124Z,101773.25
2022-10-17T09:16:20.598Z,101794.88
2022-10-17T09:18:59.867Z,101810.34
2022-10-17T09:21:37.872Z,101826.75
2022-10-17T09:24:15.801Z,101837.00
2022-10-17T09:26:46.726Z,101858.72
2022-10-17T09:29:21.261Z,101871.50
2022-10-17T09:31:59.108Z,101906.13
2022-10-17T09:34:30.112Z,101915.59
2022-10-17T09:37:00.050Z,101932.81
2022-10-17T09:39:31.827Z,101969.16
2022-10-17T09:42:01.832Z,101994.13
2022-10-17T09:44:33.033Z,102037.34
2022-10-17T09:47:16.372Z,102073.56
2022-10-17T09:49:46.113Z,102113.31
2022-10-17T09:52:17.497Z,102157.38
2022-10-17T09:54:47.856Z,102204.09
2022-10-17T09:57:17.487Z,102240.41
2022-10-17T09:59:48.406Z,102298.31
2022-10-17T10:02:20.777Z,102348.50
2022-10-17T10:05:05.041Z,102384.84
2022-10-17T10:07:36.929Z,102411.66
2022-10-17T10:10:07.446Z,102428.94
2022-10-17T10:12:38.882Z,102455.75
2022-10-17T10:15:35.979Z,102489.56
2022-10-17T10:18:25.505Z,102501.66
2022-10-17T10:21:06.324Z,102536.34
2022-10-17T10:23:34.793Z,102561.44
2022-10-17T10:26:04.829Z,102591.78
2022-10-17T10:28:35.611Z,102623.84
2022-10-17T10:31:06.063Z,102672.34
2022-10-17T10:33:41.443Z,102720.84
2022-10-17T10:36:10.032Z,102779.78
2022-10-17T10:38:42.476Z,102838.75
2022-10-17T10:41:12.615Z,102895.19
2022-10-17T10:43:44.226Z,102948.16
2022-10-17T10:46:19.685Z,102998.50
2022-10-17T10:48:54.937Z,103049.69
2022-10-17T10:51:28.851Z,103088.78
2022-10-17T10:54:03.292Z,103151.31
2022-10-17T10:56:36.484Z,103202.56
2022-10-17T10:59:11.361Z,103255.63
2022-10-17T11:01:45.464Z,103306.00
2022-10-17T11:04:27.351Z,103360.78
2022-10-17T11:07:03.167Z,103399.97
2022-10-17T11:09:43.694Z,103432.09
2022-10-17T11:12:18.028Z,103443.41
2022-10-17T11:14:50.643Z,103499.91
2022-10-17T11:17:28.952Z,103595.75
2022-10-17T11:20:07.923Z,103671.53
2022-10-17T11:22:42.370Z,103736.88
2022-10-17T11:25:23.478Z,103773.47
2022-10-17T11:27:51.556Z,103775.22
2022-10-17T11:30:19.679Z,103771.69
2022-10-17T11:32:53.782Z,103779.50
2022-10-17T11:35:26.502Z,103796.06
2022-10-17T11:38:00.475Z,103813.50
2022-10-17T11:40:32.174Z,103848.34
2022-10-17T11:43:03.296Z,103895.47
2022-10-17T11:45:37.878Z,103933.81
2022-10-17T11:48:13.197Z,103973.06
2022-10-17T11:53:47.693Z,104002.72
2022-10-17T11:56:21.386Z,104030.59
2022-10-17T11:58:58.189Z,104070.78
2022-10-17T12:01:33.830Z,104092.59
2022-10-17T12:04:23.252Z,104097.78
2022-10-17T12:07:10.825Z,104078.63
2022-10-17T12:09:46.325Z,104017.44
2022-10-17T12:12:27.037Z,103938.84
2022-10-17T12:14:55.792Z,103899.50
2022-10-17T12:17:32.970Z,103921.38
2022-10-17T12:20:30.577Z,103958.00
2022-10-17T12:23:18.265Z,104000.75
2022-10-17T12:25:51.481Z,104039.97
2022-10-17T12:28:28.496Z,104073.16
2022-10-17T12:31:00.281Z,104095.81
2022-10-17T12:33:34.898Z,104109.78
2022-10-17T12:36:46.104Z,104098.44
2022-10-17T12:39:46.464Z,104088.75
2022-10-17T12:42:51.920Z,104068.66
2022-10-17T12:45:47.294Z,104059.03
2022-10-17T12:48:35.374Z,104086.06
2022-10-17T12:53:59.578Z,104113.94
2022-10-17T12:56:37.814Z,104114.81
2022-10-17T12:59:16.454Z,104147.94
2022-10-17T13:01:48.088Z,104186.38
2022-10-17T13:04:16.908Z,104227.47
2022-10-17T13:06:48.326Z,104236.19
2022-10-17T13:09:27.499Z,104230.00
2022-10-17T13:11:58.023Z,104247.47
2022-10-17T13:14:28.523Z,104258.78
2022-10-17T13:16:58.506Z,104255.25
2022-10-17T13:19:30.009Z,104264.00
2022-10-17T13:22:06.293Z,104242.06
2022-10-17T13:24:36.683Z,104194.00
2022-10-17T13:27:06.179Z,104133.66
2022-10-17T13:29:35.619Z,104080.34
2022-10-17T13:32:05.812Z,104061.09
2022-10-17T13:34:35.221Z,104077.69
2022-10-17T13:37:06.137Z,104075.03
2022-10-17T13:39:52.835Z,104071.50
2022-10-17T13:42:26.201Z,104088.97
2022-10-17T13:44:56.756Z,104088.88
2022-10-17T13:47:26.536Z,104120.38
2022-10-17T13:49:55.869Z,104123.81
2022-10-17T13:52:27.979Z,104094.94
2022-10-17T13:55:06.445Z,104045.16
2022-10-17T13:57:34.417Z,103992.72
2022-10-17T14:00:12.540Z,103957.81
2022-10-17T14:02:42.512Z,103912.34
2022-10-17T14:05:18.984Z,103879.16
2022-10-17T14:10:42.263Z,103826.75
2022-10-17T14:13:22.011Z,103797.09
2022-10-17T14:15:52.161Z,103764.81
2022-10-17T14:18:23.007Z,103737.75
2022-10-17T14:23:42.292Z,103702.72
2022-10-17T14:26:13.703Z,103693.16
2022-10-17T14:28:42.936Z,103681.75
2022-10-17T14:31:20.845Z,103659.97
2022-10-17T14:33:51.099Z,103634.63
2022-10-17T14:36:20.465Z,103624.22
2022-10-17T14:38:50.961Z,103584.91
2022-10-17T14:44:23.517Z,103541.38
2022-10-17T14:46:57.773Z,103526.50
2022-10-17T14:49:32.592Z,103512.59
2022-10-17T14:52:30.064Z,103490.69
2022-10-17T14:54:59.431Z,103496.81
2022-10-17T14:57:35.862Z,103493.28
2022-10-17T15:00:04.303Z,103489.78
2022-10-17T15:02:33.685Z,103473.16
2022-10-17T15:05:01.653Z,103467.09
2022-10-17T15:07:29.493Z,103456.63
2022-10-17T15:09:57.302Z,103439.19
2022-10-17T15:12:26.491Z,103423.50
2022-10-17T15:14:55.145Z,103408.75
2022-10-17T15:17:27.196Z,103375.56
2022-10-17T15:19:56.967Z,103350.31
2022-10-17T15:22:25.377Z,103323.34
2022-10-17T15:24:53.260Z,103293.63
2022-10-17T15:27:23.021Z,103265.78
2022-10-17T15:29:52.826Z,103237.91
2022-10-17T15:32:20.711Z,103207.50
2022-10-17T15:34:48.600Z,103178.78
2022-10-17T15:37:21.939Z,103150.03
2022-10-17T15:39:53.521Z,103126.56
2022-10-17T15:42:22.778Z,103107.47
2022-10-17T15:44:50.781Z,103076.91
2022-10-17T15:47:25.508Z,103051.72
2022-10-17T15:50:19.154Z,103012.56
2022-10-17T15:52:50.836Z,102982.13
2022-10-17T15:55:19.648Z,102961.34
2022-10-17T15:57:49.111Z,102927.41
2022-10-17T16:00:19.423Z,102896.16
2022-10-17T16:02:47.724Z,102876.16
2022-10-17T16:05:17.995Z,102852.72
2022-10-17T16:07:46.802Z,102814.41
2022-10-17T16:10:17.109Z,102784.91
2022-10-17T16:12:45.432Z,102761.50
2022-10-17T16:15:15.497Z,102748.47
2022-10-17T16:17:43.841Z,102727.66
2022-10-17T16:20:13.498Z,102707.63
2022-10-17T16:22:42.755Z,102690.28
2022-10-17T16:25:20.459Z,102667.69
2022-10-17T16:27:50.937Z,102648.63
2022-10-17T16:30:19.642Z,102622.53
2022-10-17T16:32:48.137Z,102598.28
2022-10-17T16:35:19.458Z,102575.75
2022-10-17T16:37:47.560Z,102554.03
2022-10-17T16:40:16.699Z,102529.78
2022-10-17T16:42:46.261Z,102508.09
2022-10-17T16:45:20.731Z,102480.34
2022-10-17T16:47:49.727Z,102458.69
2022-10-17T16:50:18.464Z,102424.84
2022-10-17T16:52:46.418Z,102400.66
2022-10-17T16:55:14.243Z,102368.59
2022-10-17T16:57:45.972Z,102331.28
2022-10-17T17:00:16.147Z,102309.66
2022-10-17T17:02:44.364Z,102289.78
2022-10-17T17:05:12.748Z,102265.50
2022-10-17T17:07:40.728Z,102253.41
2022-10-17T17:10:09.454Z,102233.50
2022-10-17T17:12:37.851Z,102206.66
2022-10-17T17:15:07.590Z,102192.84
2022-10-17T17:17:54.880Z,102159.91
2022-10-17T17:20:23.715Z,102151.28
2022-10-17T17:22:52.275Z,102140.03
2022-10-17T17:25:20.190Z,102117.53
2022-10-17T17:27:48.210Z,102105.41
2022-10-17T17:30:17.594Z,102088.13
2022-10-17T17:32:45.491Z,102059.59
2022-10-17T17:35:13.377Z,102021.47
2022-10-17T17:37:41.273Z,102000.72
2022-10-17T17:40:10.023Z,101994.69
2022-10-17T17:42:37.908Z,101976.53
2022-10-17T17:45:06.711Z,101969.63
2022-10-17T17:47:35.960Z,101957.53
2022-10-17T17:50:04.240Z,101952.38
2022-10-17T17:52:32.302Z,101940.22
2022-10-17T17:55:00.283Z,101923.78
2022-10-17T17:57:30.314Z,101911.69
2022-10-17T17:59:58.408Z,101891.78
2022-10-17T18:02:26.490Z,101877.19
2022-10-17T18:04:55.762Z,101839.94
2022-10-17T18:07:24.668Z,101802.00
2022-10-17T18:09:52.482Z,101759.72
2022-10-17T18:12:20.465Z,101714.91
2022-10-17T18:14:48.843Z,101655.25
2022-10-17T18:17:16.731Z,101609.63
2022-10-17T18:19:44.560Z,101559.63
2022-10-17T18:22:14.038Z,101506.09
2022-10-17T18:24:42.609Z,101469.09
2022-10-17T18:27:12.680Z,101438.09
2022-10-17T18:29:40.530Z,101400.97
2022-10-17T18:32:08.565Z,101369.22
2022-10-17T18:34:36.463Z,101341.63
2022-10-17T18:37:04.337Z,101310.66
2022-10-17T18:39:33.553Z,101285.69
2022-10-17T18:42:01.413Z,101269.34
2022-10-17T18:44:29.425Z,101251.28
2022-10-17T18:47:02.933Z,101234.00
2022-10-17T18:49:32.544Z,101215.09
2022-10-17T18:52:00.561Z,101204.84
2022-10-17T18:54:29.598Z,101185.81
2022-10-17T18:56:58.818Z,101176.38
2022-10-17T18:59:26.656Z,101164.38
2022-10-17T19:01:54.560Z,101152.41
2022-10-17T19:04:22.703Z,101132.59
2022-10-17T19:06:50.473Z,101115.34
2022-10-17T19:09:18.887Z,101107.59
2022-10-17T19:11:46.929Z,101100.81
2022-10-17T19:14:16.254Z,101087.03
2022-10-17T19:16:45.799Z,101080.25
2022-10-17T19:19:15.996Z,101050.88
2022-10-17T19:21:44.102Z,101044.94
2022-10-17T19:24:13.899Z,101029.47
2022-10-17T19:26:43.670Z,101013.09
2022-10-17T19:29:14.248Z,100997.69
2022-10-17T19:31:44.144Z,100978.75
2022-10-17T19:34:13.146Z,100961.56
2022-10-17T19:36:41.425Z,100941.78
2022-10-17T19:39:16.324Z,100930.69
2022-10-17T19:41:45.319Z,100926.34
2022-10-17T19:44:13.912Z,100905.75
2022-10-17T19:46:44.345Z,100900.63
2022-10-17T19:49:12.799Z,100890.31
2022-10-17T19:51:40.908Z,100884.34
2022-10-17T19:54:08.708Z,100865.41
2022-10-17T19:56:38.067Z,100867.16
2022-10-17T19:59:06.442Z,100856.91
2022-10-17T20:01:38.858Z,100843.13
2022-10-17T20:04:08.752Z,100827.63
2022-10-17T20:06:36.710Z,100826.03
2022-10-17T20:09:05.193Z,100816.59
2022-10-17T20:11:33.343Z,100806.22
2022-10-17T20:14:02.063Z,100801.09
2022-10-17T20:16:32.167Z,100794.28
2022-10-17T20:19:06.627Z,100796.91
2022-10-17T20:21:36.652Z,100783.94
2022-10-17T20:24:06.868Z,100780.53
2022-10-17T20:26:38.710Z,100793.44
2022-10-17T20:29:10.900Z,100801.09
2022-10-17T20:31:40.218Z,100816.59
2022-10-17T20:34:08.208Z,100825.25
2022-10-17T20:36:37.762Z,100830.38
2022-10-17T20:39:07.324Z,100830.38
2022-10-17T20:41:35.712Z,100820.91
2022-10-17T20:44:03.798Z,100824.41
2022-10-17T20:46:44.760Z,100808.94
2022-10-17T20:49:16.538Z,100798.63
2022-10-17T20:51:46.066Z,100787.50
2022-10-17T20:54:14.074Z,100785.81
2022-10-17T20:56:42.064Z,100779.78
2022-10-17T20:59:13.111Z,100764.31
2022-10-17T21:01:41.163Z,100762.59
2022-10-17T21:04:43.983Z,100768.72
2022-10-17T21:06:59.228Z,100754.94
2022-10-17T21:09:27.287Z,100748.06
2022-10-17T21:11:55.967Z,100747.31
2022-10-17T21:14:25.604Z,100736.94
2022-10-17T21:16:53.712Z,100730.13
2022-10-17T21:19:22.676Z,100721.56
2022-10-17T21:21:51.398Z,100718.19
2022-10-17T21:24:20.888Z,100709.59
2022-10-17T21:26:55.363Z,100700.19
2022-10-17T21:29:24.056Z,100696.81
2022-10-17T21:31:52.454Z,100682.19
2022-10-17T21:34:23.800Z,100679.66
2022-10-17T21:36:52.356Z,100665.03
2022-10-17T21:39:24.176Z,100662.44
2022-10-17T21:41:53.083Z,100654.78
2022-10-17T21:44:23.543Z,100655.59
2022-10-17T21:46:52.382Z,100660.91
2022-10-17T21:49:22.553Z,100646.19
2022-10-17T21:51:51.336Z,100637.63
2022-10-17T21:54:22.993Z,100635.97
2022-10-17T21:56:51.635Z,100635.13
2022-10-17T21:59:19.408Z,100634.25
2022-10-17T22:01:47.616Z,100640.25
2022-10-17T22:06:40.797Z,100638.47
2022-10-17T22:09:12.808Z,100669.41
2022-10-17T22:11:40.846Z,100682.44
2022-10-17T22:14:12.755Z,100675.47
2022-10-17T22:16:42.442Z,100679.00
2022-10-17T22:19:11.943Z,100683.28
2022-10-17T22:21:41.294Z,100697.88
2022-10-17T22:24:11.745Z,100696.97
2022-10-17T22:26:40.386Z,100710.81
2022-10-17T22:29:09.345Z,100712.50
2022-10-17T22:31:38.052Z,100721.03
2022-10-17T22:34:08.083Z,100732.19
2022-10-17T22:36:36.257Z,100751.13
2022-10-17T22:39:06.223Z,100760.53
2022-10-17T22:41:34.125Z,100789.81
2022-10-17T22:44:02.258Z,100804.34
2022-10-17T22:46:30.132Z,100830.19
2022-10-17T22:48:58.018Z,100851.66
2022-10-17T22:51:26.079Z,100870.53
2022-10-17T22:53:53.854Z,100881.72
2022-10-17T22:56:24.221Z,100890.31
2022-10-17T22:58:53.096Z,100898.03
2022-10-17T23:01:22.987Z,100918.72
2022-10-17T23:03:51.517Z,100928.19
2022-10-17T23:06:20.041Z,100938.44
2022-10-17T23:08:48.507Z,100948.88
2022-10-17T23:11:17.048Z,100945.41
2022-10-17T23:13:46.325Z,100942.81
2022-10-17T23:16:14.223Z,100938.59
2022-10-17T23:18:43.640Z,100930.88
2022-10-17T23:21:11.828Z,100920.50
2022-10-17T23:23:39.852Z,100922.41
2022-10-17T23:26:10.280Z,100906.03
2022-10-17T23:28:38.412Z,100887.91
2022-10-17T23:31:16.574Z,100888.84
2022-10-17T23:33:46.130Z,100880.25
2022-10-17T23:36:15.258Z,100876.84
2022-10-17T23:38:44.508Z,100862.19
2022-10-17T23:41:12.881Z,100851.88
2022-10-17T23:43:41.535Z,100861.44
2022-10-17T23:46:11.723Z,100854.53
2022-10-17T23:48:41.693Z,100859.75
2022-10-17T23:51:10.552Z,100860.59
2022-10-17T23:53:38.720Z,100852.88
2022-10-17T23:56:08.026Z,100848.53
2022-10-17T23:58:35.883Z,100852.03
